Station Historical Data
Daily Summary for May 12, 2012 Units:  English    Metric   Both
« Previous Day
Next Day »
Daily Weekly Monthly Yearly Custom
  High: Low: Average:
Temperature: 76.9 °F 60.3 °F 65.5 °F
Dew Point: 64.8 °F 51.9 °F 58.6 °F
Humidity: 93% 59% 79%
Wind Speed: 13.0mph 0.0mph 2.9mph
Wind Gust: 18.0mph - -
Wind- - ESE
Pressure: 30.16 in 30.03 in -
Precipitation: 0.75 in    
Historical Graphs
 
 
Tabular Data for May 12, 2012
Time Temperature Dew Point Pressure Wind Wind Speed Wind Gust Humidity Rainfall Rate (Hourly) Conditions
00:00 61.1 °F 54.9 °F 30.10 in Calm   1.0 mph 80% 0.00 in
00:05 60.8 °F 55.6 °F 30.10 in NNW 1.0 mph 2.0 mph 83% 0.00 in
00:10 60.4 °F 55.2 °F 30.10 in North 1.0 mph 2.0 mph 83% 0.00 in
00:13 60.3 °F 55.1 °F 30.10 in North 2.0 mph 2.0 mph 83% 0.00 in
00:18 60.3 °F 54.8 °F 30.11 in NNW 1.0 mph 2.0 mph 82% 0.00 in
00:23 60.4 °F 54.9 °F 30.10 in Calm   1.0 mph 82% 0.00 in
00:28 60.5 °F 54.3 °F 30.10 in Calm   1.0 mph 80% 0.00 in
00:33 60.8 °F 54.3 °F 30.10 in Calm     79% 0.00 in
00:38 60.8 °F 53.2 °F 30.10 in NNE 2.0 mph 2.0 mph 76% 0.00 in
00:43 61.6 °F 53.6 °F 30.10 in NNE 2.0 mph 2.0 mph 75% 0.00 in
00:48 62.1 °F 53.3 °F 30.10 in NNE 1.0 mph 2.0 mph 73% 0.00 in
00:53 62.3 °F 53.2 °F 30.10 in Calm   2.0 mph 72% 0.00 in
00:58 62.0 °F 53.3 °F 30.10 in Calm   1.0 mph 73% 0.00 in
01:03 61.7 °F 53.7 °F 30.10 in NNE 1.0 mph 1.0 mph 75% 0.00 in
01:08 61.1 °F 54.5 °F 30.10 in Calm   1.0 mph 79% 0.00 in
01:13 60.7 °F 53.8 °F 30.10 in North 2.0 mph 2.0 mph 78% 0.00 in
01:18 60.5 °F 54.3 °F 30.10 in NNW 1.0 mph 1.0 mph 80% 0.00 in
01:23 60.4 °F 53.9 °F 30.10 in Calm   1.0 mph 79% 0.00 in
01:28 60.5 °F 52.9 °F 30.10 in North 1.0 mph 2.0 mph 76% 0.00 in
01:33 61.1 °F 52.0 °F 30.09 in NNE 3.0 mph 3.0 mph 72% 0.00 in
01:38 61.7 °F 52.2 °F 30.09 in NNE 2.0 mph 2.0 mph 71% 0.00 in
01:43 61.9 °F 52.4 °F 30.09 in NE 2.0 mph 2.0 mph 71% 0.00 in
01:48 62.1 °F 52.2 °F 30.09 in NE 1.0 mph 3.0 mph 70% 0.00 in
01:53 62.3 °F 52.4 °F 30.09 in NNE 2.0 mph 2.0 mph 70% 0.00 in
01:58 62.4 °F 52.5 °F 30.09 in NE 1.0 mph 2.0 mph 70% 0.00 in
02:03 62.5 °F 52.2 °F 30.09 in Calm   1.0 mph 69% 0.00 in
02:08 62.6 °F 52.7 °F 30.09 in Calm     70% 0.00 in
02:13 62.4 °F 52.5 °F 30.09 in Calm     70% 0.00 in
02:18 62.3 °F 52.4 °F 30.09 in NE 1.0 mph 1.0 mph 70% 0.00 in
02:23 62.4 °F 52.9 °F 30.09 in NNE 1.0 mph 1.0 mph 71% 0.00 in
02:28 62.0 °F 52.9 °F 30.08 in North 1.0 mph 2.0 mph 72% 0.00 in
02:34 61.8 °F 53.4 °F 30.08 in NNE 1.0 mph 2.0 mph 74% 0.00 in
02:39 61.6 °F 53.2 °F 30.09 in North 1.0 mph 2.0 mph 74% 0.00 in
02:44 61.5 °F 52.8 °F 30.08 in NNE 1.0 mph 2.0 mph 73% 0.00 in
02:49 61.6 °F 53.2 °F 30.09 in NNE 1.0 mph 1.0 mph 74% 0.00 in
02:54 61.6 °F 52.9 °F 30.09 in NNE 1.0 mph 2.0 mph 73% 0.00 in
02:59 62.1 °F 52.2 °F 30.09 in East 2.0 mph 4.0 mph 70% 0.00 in
03:04 63.0 °F 51.9 °F 30.09 in ENE 3.0 mph 4.0 mph 67% 0.00 in
03:09 63.4 °F 52.3 °F 30.09 in Calm   3.0 mph 67% 0.00 in
03:14 63.5 °F 52.0 °F 30.09 in ENE 2.0 mph 2.0 mph 66% 0.00 in
03:19 63.6 °F 52.5 °F 30.09 in ENE 1.0 mph 2.0 mph 67% 0.00 in
03:24 63.6 °F 53.3 °F 30.09 in East 1.0 mph 1.0 mph 69% 0.00 in
03:29 63.3 °F 52.6 °F 30.09 in East 1.0 mph 1.0 mph 68% 0.00 in
03:34 63.4 °F 53.1 °F 30.09 in ENE 2.0 mph 2.0 mph 69% 0.00 in
03:39 63.3 °F 52.6 °F 30.09 in ENE 3.0 mph 3.0 mph 68% 0.00 in
03:44 63.4 °F 52.7 °F 30.08 in NE 2.0 mph 3.0 mph 68% 0.00 in
03:49 63.4 °F 52.3 °F 30.08 in ENE 2.0 mph 4.0 mph 67% 0.00 in
03:54 63.3 °F 52.6 °F 30.08 in ENE 2.0 mph 3.0 mph 68% 0.00 in
03:59 63.2 °F 52.9 °F 30.08 in ESE 2.0 mph 4.0 mph 69% 0.00 in
04:04 63.1 °F 53.2 °F 30.08 in ENE 2.0 mph 3.0 mph 70% 0.00 in
04:09 63.0 °F 53.1 °F 30.08 in East 1.0 mph 4.0 mph 70% 0.00 in
04:14 62.9 °F 53.0 °F 30.08 in ENE 1.0 mph 4.0 mph 70% 0.00 in
04:19 62.9 °F 53.4 °F 30.08 in East 2.0 mph 4.0 mph 71% 0.00 in
04:24 62.8 °F 53.3 °F 30.08 in ESE 3.0 mph 3.0 mph 71% 0.00 in
04:29 62.7 °F 53.5 °F 30.08 in SE 2.0 mph 3.0 mph 72% 0.00 in
04:34 62.6 °F 53.8 °F 30.08 in ESE 2.0 mph 3.0 mph 73% 0.00 in
04:39 62.5 °F 53.7 °F 30.08 in ESE 3.0 mph 4.0 mph 73% 0.00 in
04:44 62.6 °F 53.5 °F 30.08 in SE 3.0 mph 5.0 mph 72% 0.00 in
04:49 62.6 °F 53.8 °F 30.08 in ESE 3.0 mph 4.0 mph 73% 0.00 in
04:54 62.5 °F 53.7 °F 30.08 in ESE 3.0 mph 4.0 mph 73% 0.00 in
04:59 62.4 °F 54.0 °F 30.08 in ESE 3.0 mph 3.0 mph 74% 0.00 in
05:04 62.3 °F 53.9 °F 30.08 in ESE 2.0 mph 3.0 mph 74% 0.00 in
05:09 62.2 °F 53.8 °F 30.08 in ESE 1.0 mph 2.0 mph 74% 0.00 in
05:14 62.2 °F 54.2 °F 30.08 in East 2.0 mph 2.0 mph 75% 0.00 in
05:19 62.2 °F 53.8 °F 30.08 in ESE 2.0 mph 2.0 mph 74% 0.00 in
05:24 62.2 °F 54.2 °F 30.08 in ESE 1.0 mph 2.0 mph 75% 0.00 in
05:29 62.3 °F 53.9 °F 30.09 in East 2.0 mph 3.0 mph 74% 0.00 in
05:34 62.4 °F 54.0 °F 30.09 in ESE 1.0 mph 3.0 mph 74% 0.00 in
05:39 62.4 °F 54.0 °F 30.09 in ESE 1.0 mph 2.0 mph 74% 0.00 in
05:44 62.3 °F 54.3 °F 30.09 in ESE 1.0 mph 2.0 mph 75% 0.00 in
05:49 62.2 °F 54.2 °F 30.09 in SE 3.0 mph 3.0 mph 75% 0.00 in
05:54 62.1 °F 54.1 °F 30.09 in SE 2.0 mph 3.0 mph 75% 0.00 in
05:59 62.0 °F 54.4 °F 30.09 in SE 3.0 mph 3.0 mph 76% 0.00 in
06:04 62.0 °F 54.4 °F 30.09 in ESE 2.0 mph 4.0 mph 76% 0.00 in
06:09 62.0 °F 54.4 °F 30.09 in SE 2.0 mph 3.0 mph 76% 0.00 in
06:14 62.0 °F 54.4 °F 30.09 in SE 3.0 mph 4.0 mph 76% 0.00 in
06:19 62.1 °F 54.5 °F 30.10 in SE 2.0 mph 2.0 mph 76% 0.00 in
06:24 62.2 °F 54.5 °F 30.10 in SE 1.0 mph 2.0 mph 76% 0.00 in
06:30 62.4 °F 54.4 °F 30.10 in ESE 2.0 mph 3.0 mph 75% 0.00 in
06:35 62.6 °F 54.6 °F 30.10 in ESE 3.0 mph 4.0 mph 75% 0.00 in
06:40 63.0 °F 54.6 °F 30.10 in East 2.0 mph 4.0 mph 74% 0.00 in
06:45 62.9 °F 54.9 °F 30.10 in East 1.0 mph 2.0 mph 75% 0.00 in
06:50 62.8 °F 54.8 °F 30.11 in ESE 1.0 mph 3.0 mph 75% 0.00 in
06:55 62.8 °F 54.8 °F 30.11 in ESE 2.0 mph 3.0 mph 75% 0.00 in
07:00 62.9 °F 54.5 °F 30.11 in East 2.0 mph 3.0 mph 74% 0.00 in
07:05 62.9 °F 54.5 °F 30.11 in ESE 1.0 mph 2.0 mph 74% 0.00 in
07:10 62.9 °F 54.5 °F 30.11 in Calm   1.0 mph 74% 0.00 in
07:15 62.8 °F 54.4 °F 30.12 in East 1.0 mph 2.0 mph 74% 0.00 in
07:16 62.8 °F 54.4 °F 30.12 in East 2.0 mph 2.0 mph 74% 0.00 in
07:21 62.7 °F 54.7 °F 30.12 in Calm   1.0 mph 75% 0.00 in
07:26 62.5 °F 54.5 °F 30.12 in Calm     75% 0.00 in
07:31 62.4 °F 54.8 °F 30.12 in ENE 2.0 mph 2.0 mph 76% 0.00 in
07:36 62.3 °F 55.0 °F 30.12 in Calm   2.0 mph 77% 0.00 in
07:41 62.0 °F 55.8 °F 30.12 in NNE 1.0 mph 1.0 mph 80% 0.00 in
07:46 61.4 °F 55.9 °F 30.12 in NNW 1.0 mph 2.0 mph 82% 0.00 in
07:51 61.1 °F 55.9 °F 30.12 in Calm   1.0 mph 83% 0.00 in
07:56 60.9 °F 56.0 °F 30.12 in North 1.0 mph 1.0 mph 84% 0.00 in
08:01 60.7 °F 55.5 °F 30.12 in North 1.0 mph 1.0 mph 83% 0.00 in
08:06 60.8 °F 55.9 °F 30.12 in North 2.0 mph 3.0 mph 84% 0.00 in
08:12 60.5 °F 56.0 °F 30.12 in NE 4.0 mph 6.0 mph 85% 0.00 in
08:17 60.7 °F 55.2 °F 30.12 in East 2.0 mph 5.0 mph 82% 0.00 in
08:22 61.3 °F 55.8 °F 30.13 in SW 2.0 mph 3.0 mph 82% 0.00 in
08:27 61.5 °F 56.0 °F 30.14 in SW 1.0 mph 2.0 mph 82% 0.00 in
08:32 61.8 °F 56.2 °F 30.14 in SW 1.0 mph 2.0 mph 82% 0.00 in
08:37 61.9 °F 56.7 °F 30.14 in Calm     83% 0.00 in
08:42 61.9 °F 56.3 °F 30.14 in SE 1.0 mph 1.0 mph 82% 0.00 in
08:47 62.0 °F 57.1 °F 30.14 in ESE 1.0 mph 1.0 mph 84% 0.00 in
08:52 62.1 °F 56.9 °F 30.14 in Calm   1.0 mph 83% 0.00 in
08:57 62.2 °F 57.0 °F 30.15 in Calm     83% 0.00 in
09:02 62.4 °F 58.2 °F 30.15 in East 1.0 mph 1.0 mph 86% 0.00 in
09:07 62.1 °F 58.5 °F 30.15 in North 2.0 mph 2.0 mph 88% 0.00 in
09:12 61.6 °F 58.0 °F 30.15 in North 2.0 mph 2.0 mph 88% 0.00 in
09:17 61.3 °F 58.0 °F 30.15 in North 1.0 mph 2.0 mph 89% 0.00 in
09:22 61.1 °F 57.8 °F 30.15 in NW 2.0 mph 3.0 mph 89% 0.00 in
09:27 61.0 °F 58.0 °F 30.15 in WNW 2.0 mph 3.0 mph 90% 0.00 in
09:32 60.9 °F 57.6 °F 30.16 in WNW 2.0 mph 3.0 mph 89% 0.00 in
09:37 60.9 °F 57.6 °F 30.16 in NNE 1.0 mph 2.0 mph 89% 0.00 in
09:42 60.9 °F 57.6 °F 30.16 in North 2.0 mph 2.0 mph 89% 0.00 in
09:47 61.0 °F 57.7 °F 30.16 in North 2.0 mph 3.0 mph 89% 0.00 in
09:52 61.0 °F 57.7 °F 30.16 in NNE 2.0 mph 3.0 mph 89% 0.00 in
09:57 61.1 °F 57.8 °F 30.16 in North 2.0 mph 2.0 mph 89% 0.00 in
10:02 61.1 °F 57.8 °F 30.16 in North 1.0 mph 4.0 mph 89% 0.00 in
10:07 61.2 °F 57.9 °F 30.16 in NNE 1.0 mph 2.0 mph 89% 0.00 in
10:12 61.2 °F 57.9 °F 30.15 in NNE 2.0 mph 5.0 mph 89% 0.00 in
10:17 61.3 °F 57.7 °F 30.15 in NE 2.0 mph 3.0 mph 88% 0.00 in
10:22 61.5 °F 57.9 °F 30.15 in NNE 2.0 mph 4.0 mph 88% 0.00 in
10:27 61.7 °F 57.8 °F 30.15 in NE 4.0 mph 4.0 mph 87% 0.00 in
10:32 61.9 °F 58.0 °F 30.15 in North 1.0 mph 4.0 mph 87% 0.00 in
10:37 62.0 °F 57.8 °F 30.15 in NE 2.0 mph 5.0 mph 86% 0.00 in
10:42 62.2 °F 58.3 °F 30.15 in North 1.0 mph 5.0 mph 87% 0.00 in
10:48 62.3 °F 58.4 °F 30.15 in NNE 1.0 mph 4.0 mph 87% 0.00 in
10:53 62.3 °F 58.4 °F 30.15 in NNE 3.0 mph 5.0 mph 87% 0.00 in
10:58 62.4 °F 58.5 °F 30.15 in NNE 2.0 mph 3.0 mph 87% 0.00 in
11:03 62.5 °F 58.6 °F 30.15 in NNE 3.0 mph 5.0 mph 87% 0.00 in
11:08 62.6 °F 58.7 °F 30.15 in NNE 3.0 mph 4.0 mph 87% 0.00 in
11:13 62.8 °F 58.9 °F 30.14 in NE 4.0 mph 5.0 mph 87% 0.00 in
11:18 63.2 °F 59.0 °F 30.14 in NE 5.0 mph 6.0 mph 86% 0.00 in
11:23 63.7 °F 59.1 °F 30.13 in North 6.0 mph 6.0 mph 85% 0.00 in
11:28 64.3 °F 58.7 °F 30.13 in NE 10.0 mph 10.0 mph 82% 0.00 in
11:33 64.7 °F 58.4 °F 30.13 in NE 3.0 mph 9.0 mph 80% 0.00 in
11:38 65.2 °F 58.9 °F 30.14 in ENE 6.0 mph 9.0 mph 80% 0.00 in
11:43 65.5 °F 58.5 °F 30.13 in NE 5.0 mph 6.0 mph 78% 0.00 in
11:48 65.7 °F 58.3 °F 30.14 in NNE 4.0 mph 8.0 mph 77% 0.00 in
11:53 66.1 °F 58.7 °F 30.13 in NE 5.0 mph 9.0 mph 77% 0.00 in
11:58 66.4 °F 59.0 °F 30.13 in NE 4.0 mph 6.0 mph 77% 0.00 in
12:03 66.5 °F 59.1 °F 30.13 in East 3.0 mph 7.0 mph 77% 0.00 in
12:08 66.6 °F 58.8 °F 30.13 in ENE 3.0 mph 9.0 mph 76% 0.00 in
12:13 66.6 °F 59.2 °F 30.13 in NE 5.0 mph 7.0 mph 77% 0.00 in
12:18 66.6 °F 59.2 °F 30.13 in NE 8.0 mph 8.0 mph 77% 0.00 in
12:24 66.6 °F 59.5 °F 30.13 in NE 3.0 mph 7.0 mph 78% 0.00 in
12:29 66.6 °F 59.2 °F 30.13 in NNE 5.0 mph 8.0 mph 77% 0.00 in
12:34 66.8 °F 59.4 °F 30.12 in NE 8.0 mph 9.0 mph 77% 0.00 in
12:39 67.2 °F 60.1 °F 30.12 in ENE 3.0 mph 6.0 mph 78% 0.00 in
12:44 67.4 °F 60.0 °F 30.12 in NE 6.0 mph 8.0 mph 77% 0.00 in
12:49 67.7 °F 60.2 °F 30.12 in ENE 5.0 mph 8.0 mph 77% 0.00 in
12:54 68.0 °F 59.8 °F 30.11 in ENE 4.0 mph 9.0 mph 75% 0.00 in
12:59 68.1 °F 59.5 °F 30.11 in NE 5.0 mph 7.0 mph 74% 0.00 in
13:04 68.4 °F 60.2 °F 30.11 in East 4.0 mph 6.0 mph 75% 0.00 in
13:09 68.9 °F 60.3 °F 30.11 in NE 7.0 mph 9.0 mph 74% 0.00 in
13:14 69.4 °F 60.8 °F 30.10 in ESE 6.0 mph 8.0 mph 74% 0.00 in
13:19 69.9 °F 61.6 °F 30.10 in NE 5.0 mph 9.0 mph 75% 0.00 in
13:24 70.2 °F 60.8 °F 30.10 in East 5.0 mph 7.0 mph 72% 0.00 in
13:29 70.8 °F 61.3 °F 30.10 in ENE 8.0 mph 8.0 mph 72% 0.00 in
13:34 71.1 °F 61.6 °F 30.09 in East 7.0 mph 9.0 mph 72% 0.00 in
13:39 71.5 °F 61.6 °F 30.09 in ENE 5.0 mph 10.0 mph 71% 0.00 in
13:44 72.3 °F 62.4 °F 30.09 in East 7.0 mph 13.0 mph 71% 0.00 in
13:49 72.9 °F 62.1 °F 30.09 in East 8.0 mph 11.0 mph 69% 0.00 in
13:54 73.5 °F 62.7 °F 30.08 in ESE 6.0 mph 9.0 mph 69% 0.00 in
13:59 74.1 °F 62.5 °F 30.09 in SE 6.0 mph 11.0 mph 67% 0.00 in
14:04 74.9 °F 63.2 °F 30.09 in ESE 9.0 mph 9.0 mph 67% 0.00 in
14:09 75.2 °F 62.6 °F 30.08 in ESE 8.0 mph 15.0 mph 65% 0.00 in
14:14 75.9 °F 62.0 °F 30.08 in ESE 11.0 mph 13.0 mph 62% 0.00 in
14:19 75.8 °F 61.4 °F 30.08 in ESE 12.0 mph 18.0 mph 61% 0.00 in
14:24 75.6 °F 61.2 °F 30.08 in East 9.0 mph 14.0 mph 61% 0.00 in
14:29 75.5 °F 62.0 °F 30.08 in SE 8.0 mph 14.0 mph 63% 0.00 in
14:34 75.6 °F 62.6 °F 30.08 in SE 6.0 mph 9.0 mph 64% 0.00 in
14:39 75.6 °F 62.1 °F 30.07 in SE 6.0 mph 12.0 mph 63% 0.00 in
14:44 75.7 °F 62.2 °F 30.07 in SE 6.0 mph 8.0 mph 63% 0.00 in
14:49 75.8 °F 62.3 °F 30.07 in SE 9.0 mph 14.0 mph 63% 0.00 in
14:54 76.2 °F 61.8 °F 30.07 in ESE 8.0 mph 13.0 mph 61% 0.00 in
15:00 76.9 °F 62.0 °F 30.06 in ESE 13.0 mph 15.0 mph 60% 0.00 in
15:05 76.9 °F 61.5 °F 30.05 in ESE 10.0 mph 16.0 mph 59% 0.00 in
15:10 76.9 °F 62.0 °F 30.06 in South 12.0 mph 13.0 mph 60% 0.00 in
15:15 76.4 °F 61.5 °F 30.06 in ESE 12.0 mph 17.0 mph 60% 0.00 in
15:20 75.8 °F 61.4 °F 30.06 in SE 8.0 mph 12.0 mph 61% 0.00 in
15:25 75.2 °F 61.3 °F 30.06 in SE 9.0 mph 12.0 mph 62% 0.00 in
15:30 74.6 °F 61.2 °F 30.06 in South 9.0 mph 13.0 mph 63% 0.00 in
15:35 74.2 °F 61.2 °F 30.05 in SE 4.0 mph 9.0 mph 64% 0.00 in
15:40 74.0 °F 61.1 °F 30.06 in SSE 9.0 mph 10.0 mph 64% 0.00 in
15:45 73.9 °F 61.4 °F 30.05 in SSE 6.0 mph 9.0 mph 65% 0.00 in
15:50 73.9 °F 61.4 °F 30.05 in SE 5.0 mph 12.0 mph 65% 0.00 in
15:55 73.9 °F 61.4 °F 30.05 in SE 8.0 mph 15.0 mph 65% 0.00 in
16:00 73.9 °F 61.4 °F 30.05 in SE 6.0 mph 10.0 mph 65% 0.00 in
16:05 73.9 °F 61.8 °F 30.05 in SE 6.0 mph 9.0 mph 66% 0.00 in
16:10 74.1 °F 62.0 °F 30.04 in ESE 9.0 mph 9.0 mph 66% 0.00 in
16:15 74.3 °F 62.6 °F 30.04 in SE 5.0 mph 10.0 mph 67% 0.00 in
16:20 74.5 °F 62.8 °F 30.04 in SE 5.0 mph 8.0 mph 67% 0.00 in
16:25 74.7 °F 62.6 °F 30.04 in SE 5.0 mph 10.0 mph 66% 0.00 in
16:30 74.9 °F 62.8 °F 30.04 in ESE 5.0 mph 9.0 mph 66% 0.00 in
16:36 74.9 °F 61.9 °F 30.04 in SE 6.0 mph 10.0 mph 64% 0.00 in
16:41 74.8 °F 61.8 °F 30.04 in SE 7.0 mph 13.0 mph 64% 0.00 in
16:46 74.8 °F 61.8 °F 30.04 in SE 6.0 mph 10.0 mph 64% 0.00 in
16:51 74.7 °F 62.2 °F 30.04 in SE 5.0 mph 9.0 mph 65% 0.00 in
16:56 74.7 °F 62.2 °F 30.04 in SSE 4.0 mph 7.0 mph 65% 0.00 in
17:01 74.5 °F 62.8 °F 30.04 in SSE 2.0 mph 6.0 mph 67% 0.00 in
17:06 74.3 °F 62.2 °F 30.04 in SSE 2.0 mph 6.0 mph 66% 0.00 in
17:11 74.1 °F 62.5 °F 30.03 in SE 2.0 mph 7.0 mph 67% 0.00 in
17:16 73.8 °F 62.6 °F 30.03 in SE 3.0 mph 5.0 mph 68% 0.00 in
17:21 73.5 °F 62.3 °F 30.03 in SE 3.0 mph 5.0 mph 68% 0.00 in
17:26 73.5 °F 63.1 °F 30.03 in East 3.0 mph 6.0 mph 70% 0.00 in
17:31 73.3 °F 62.9 °F 30.03 in SE 4.0 mph 6.0 mph 70% 0.00 in
17:36 73.2 °F 63.2 °F 30.03 in SE 4.0 mph 6.0 mph 71% 0.00 in
17:41 72.9 °F 63.3 °F 30.03 in SE 2.0 mph 5.0 mph 72% 0.00 in
17:46 72.7 °F 63.5 °F 30.03 in SE 2.0 mph 3.0 mph 73% 0.00 in
17:51 72.4 °F 63.7 °F 30.03 in Calm   2.0 mph 74% 0.00 in
17:56 72.2 °F 63.8 °F 30.03 in ESE 1.0 mph 1.0 mph 75% 0.00 in
18:01 72.0 °F 64.8 °F 30.03 in SE 3.0 mph 3.0 mph 78% 0.00 in
18:06 71.2 °F 64.4 °F 30.04 in ESE 6.0 mph 10.0 mph 79% 0.00 in
18:11 69.7 °F 64.0 °F 30.04 in East 4.0 mph 8.0 mph 82% 0.00 in
18:17 68.9 °F 63.9 °F 30.04 in ESE 7.0 mph 8.0 mph 84% 0.00 in
18:22 68.5 °F 63.8 °F 30.04 in ESE 5.0 mph 8.0 mph 85% 0.00 in
18:27 68.2 °F 63.9 °F 30.04 in SE 7.0 mph 11.0 mph 86% 0.00 in
18:32 67.6 °F 63.9 °F 30.05 in SE 7.0 mph 11.0 mph 88% 0.66 in
18:37 67.0 °F 63.7 °F 30.06 in SE 5.0 mph 9.0 mph 89% 0.62 in
18:42 66.4 °F 63.7 °F 30.06 in SE 4.0 mph 7.0 mph 91% 0.27 in
18:47 66.0 °F 63.3 °F 30.05 in ESE 4.0 mph 5.0 mph 91% 0.25 in
18:52 65.7 °F 63.3 °F 30.06 in ESE 3.0 mph 5.0 mph 92% 0.42 in
18:57 65.5 °F 63.1 °F 30.05 in ESE 2.0 mph 3.0 mph 92% 0.63 in
19:02 65.4 °F 63.0 °F 30.06 in SE 4.0 mph 6.0 mph 92% 0.41 in
19:07 65.4 °F 63.3 °F 30.06 in East 3.0 mph 4.0 mph 93% 0.46 in
19:13 65.3 °F 63.2 °F 30.05 in East 2.0 mph 5.0 mph 93% 0.30 in
19:18 65.2 °F 63.1 °F 30.06 in East 2.0 mph 5.0 mph 93% 0.35 in
19:23 65.2 °F 63.1 °F 30.06 in East 1.0 mph 2.0 mph 93% 0.24 in
19:28 65.2 °F 63.1 °F 30.06 in ENE 2.0 mph 2.0 mph 93% 0.14 in
19:33 65.2 °F 63.1 °F 30.06 in East 1.0 mph 2.0 mph 93% 0.07 in
19:38 65.2 °F 63.1 °F 30.06 in East 1.0 mph 1.0 mph 93% 0.13 in
19:43 65.2 °F 63.1 °F 30.05 in East 1.0 mph 2.0 mph 93% 0.51 in
19:48 65.2 °F 63.1 °F 30.05 in ESE 1.0 mph 4.0 mph 93% 0.16 in
19:53 65.1 °F 63.0 °F 30.05 in ESE 1.0 mph 4.0 mph 93% 0.21 in
19:58 65.1 °F 63.0 °F 30.05 in East 2.0 mph 3.0 mph 93% 0.15 in
20:03 65.1 °F 63.0 °F 30.05 in ESE 1.0 mph 3.0 mph 93% 0.11 in
20:08 65.1 °F 63.0 °F 30.06 in Calm   3.0 mph 93% 0.07 in
20:13 65.1 °F 63.0 °F 30.06 in East 4.0 mph 4.0 mph 93% 0.16 in
20:18 65.1 °F 63.0 °F 30.06 in East 2.0 mph 2.0 mph 93% 0.21 in
20:23 65.0 °F 62.9 °F 30.06 in ENE 1.0 mph 2.0 mph 93% 0.34 in
20:28 65.0 °F 62.9 °F 30.06 in NE 1.0 mph 3.0 mph 93% 0.49 in
20:33 65.0 °F 62.9 °F 30.05 in ENE 2.0 mph 4.0 mph 93% 0.20 in
20:38 65.0 °F 62.9 °F 30.06 in NE 1.0 mph 3.0 mph 93% 0.20 in
20:43 64.9 °F 62.8 °F 30.06 in ENE 1.0 mph 3.0 mph 93% 0.23 in
20:48 64.9 °F 62.8 °F 30.06 in East 1.0 mph 2.0 mph 93% 0.35 in
20:53 64.9 °F 62.8 °F 30.06 in Calm   2.0 mph 93% 0.30 in
20:58 64.9 °F 62.8 °F 30.06 in ESE 1.0 mph 3.0 mph 93% 0.23 in
21:03 64.8 °F 62.7 °F 30.06 in East 2.0 mph 4.0 mph 93% 0.10 in
21:08 64.8 °F 62.7 °F 30.06 in ENE 2.0 mph 6.0 mph 93% 0.10 in
21:13 64.8 °F 62.7 °F 30.06 in ENE 2.0 mph 3.0 mph 93% 0.06 in
21:18 64.8 °F 62.7 °F 30.06 in East 2.0 mph 5.0 mph 93% 0.04 in
21:23 64.8 °F 62.7 °F 30.06 in East 3.0 mph 4.0 mph 93% 0.04 in
21:28 64.6 °F 62.5 °F 30.06 in East 2.0 mph 6.0 mph 93% 0.04 in
21:33 64.5 °F 62.4 °F 30.06 in East 2.0 mph 5.0 mph 93% 0.04 in
21:38 64.4 °F 62.3 °F 30.06 in East 5.0 mph 5.0 mph 93% 0.00 in
21:43 64.4 °F 62.3 °F 30.06 in ENE 2.0 mph 5.0 mph 93% 0.00 in
21:49 64.3 °F 62.2 °F 30.06 in ENE 3.0 mph 4.0 mph 93% 0.00 in
21:54 64.3 °F 62.2 °F 30.06 in East 2.0 mph 3.0 mph 93% 0.00 in
21:59 64.2 °F 62.1 °F 30.06 in East 2.0 mph 5.0 mph 93% 0.00 in
22:04 64.2 °F 62.1 °F 30.07 in SE 3.0 mph 3.0 mph 93% 0.00 in
22:09 64.1 °F 62.0 °F 30.07 in East 2.0 mph 4.0 mph 93% 0.00 in
22:14 64.1 °F 62.0 °F 30.07 in ESE 2.0 mph 6.0 mph 93% 0.00 in
22:19 64.1 °F 62.0 °F 30.07 in East 1.0 mph 2.0 mph 93% 0.00 in
22:24 64.0 °F 61.9 °F 30.07 in ESE 3.0 mph 4.0 mph 93% 0.00 in
22:29 64.0 °F 61.9 °F 30.07 in East 2.0 mph 3.0 mph 93% 0.00 in
22:34 63.9 °F 61.8 °F 30.07 in ESE 3.0 mph 4.0 mph 93% 0.00 in
22:39 63.9 °F 61.8 °F 30.07 in ENE 2.0 mph 3.0 mph 93% 0.00 in
22:44 63.8 °F 61.7 °F 30.07 in East 2.0 mph 3.0 mph 93% 0.00 in
22:49 63.8 °F 61.7 °F 30.07 in East 1.0 mph 2.0 mph 93% 0.00 in
22:54 63.7 °F 61.6 °F 30.07 in ESE 3.0 mph 3.0 mph 93% 0.00 in
22:59 63.7 °F 61.6 °F 30.07 in East 1.0 mph 5.0 mph 93% 0.00 in
23:04 63.7 °F 61.6 °F 30.07 in SE 1.0 mph 3.0 mph 93% 0.00 in
23:09 63.8 °F 61.7 °F 30.07 in East 2.0 mph 2.0 mph 93% 0.00 in
23:14 63.8 °F 61.7 °F 30.07 in East 1.0 mph 2.0 mph 93% 0.00 in
23:19 63.8 °F 61.7 °F 30.07 in ESE 4.0 mph 4.0 mph 93% 0.00 in
23:24 63.8 °F 61.7 °F 30.07 in East 1.0 mph 3.0 mph 93% 0.00 in
23:29 63.8 °F 61.7 °F 30.07 in ESE 1.0 mph 2.0 mph 93% 0.00 in
23:34 63.7 °F 61.6 °F 30.07 in ESE 2.0 mph 2.0 mph 93% 0.00 in
23:39 63.7 °F 61.6 °F 30.07 in East 1.0 mph 2.0 mph 93% 0.00 in
23:44 63.7 °F 61.6 °F 30.07 in ESE 1.0 mph 2.0 mph 93% 0.00 in
23:50 63.7 °F 61.6 °F 30.07 in East 1.0 mph 3.0 mph 93% 0.00 in
23:55 63.7 °F 61.6 °F 30.06 in ENE 2.0 mph 2.0 mph 93% 0.00 in
Compliments of Weather Underground